Lambi — 9HA3222 — position and weather

sailwx.info

Track history (hours):
 
Tides and Currents Weather Stations Pressure Air Temp Water Temp Dewpoint Dewpoint Depression Visibility Wind Speed Wind Dir Waves Ship Positions

Lambi

Last reported at 2017-Nov-19 19:46 UTC. Time now 2017-Nov-20 13:33 UTC.
Position S 24°12' W 045°52'.

Length 179 m; draft 10 m.

Type: Cargo ship. MMSI: 229312000.

Date/timePositionNaut miles runAvg speedWind from/ knotsBaromVisibWave heightAir tempDewpointWater temp
2017-Nov-19 19:46S 24°12' W 045°52'413.4
2017-Nov-19 19:28S 24°11' W 045°57'613.5
2017-Nov-19 19:00S 24°10' W 046°04'713.4
2017-Nov-19 18:30S 24°08' W 046°10'713.4
2017-Nov-19 18:00S 24°05' W 046°17'510.6
2017-Nov-19 17:30S 24°01' W 046°20'3 6.8
2017-Nov-19 17:00S 23°58' W 046°18'2 2.3
2017-Nov-19 16:06S 23°57' W 046°19'0 0.0
2017-Nov-19 15:36S 23°57' W 046°19'0 0.0
2017-Nov-19 15:12S 23°57' W 046°19'0 0.0
2017-Nov-19 14:57S 23°57' W 046°19'0 0.0
2017-Nov-18 14:42S 23°57' W 046°19'0 0.0
2017-Nov-18 14:12S 23°57' W 046°19'0 0.0
2017-Nov-18 14:01S 23°57' W 046°19'0 0.0
2017-Nov-18 13:24S 23°57' W 046°19'0 0.0
2017-Nov-18 05:19S 23°57' W 046°19'1 4.5
2017-Nov-18 05:00S 23°58' W 046°18'2 4.9
2017-Nov-18 04:30S 23°60' W 046°20'4 7.7
2017-Nov-18 04:00S 24°03' W 046°21'0 0.6
2017-Nov-18 03:16S 24°03' W 046°20'0 0.0
2017-Nov-18 02:58S 24°03' W 046°20'0 0.1
2017-Nov-18 02:28S 24°04' W 046°21'0 0.0
2017-Nov-18 01:55S 24°03' W 046°21'0 0.1
2017-Nov-18 01:28S 24°04' W 046°21'0 0.2
2017-Nov-18 00:58S 24°04' W 046°21'0 0.1
2017-Nov-18 00:28S 24°04' W 046°20'0 0.0
2017-Nov-17 23:58S 24°04' W 046°21'0 0.1
2017-Nov-17 23:22S 24°04' W 046°21'0 0.1
2017-Nov-17 22:58S 24°04' W 046°21'0 0.0
2017-Nov-17 22:28S 24°04' W 046°21'0 0.1
2017-Nov-17 21:58S 24°04' W 046°20'0 0.1
2017-Nov-17 21:28S 24°04' W 046°21'0 0.0
2017-Nov-17 20:55S 24°04' W 046°21'0 0.1
2017-Nov-17 20:28S 24°04' W 046°21'0 0.0
2017-Nov-17 19:49S 24°04' W 046°21'0 0.0
2017-Nov-17 19:28S 24°04' W 046°21'0 0.2
2017-Nov-17 18:58S 24°04' W 046°21'0 0.1
2017-Nov-17 18:28S 24°03' W 046°20'0 0.0
2017-Nov-17 17:55S 24°03' W 046°20'0 0.0
2017-Nov-17 17:22S 24°03' W 046°21'0 0.1
2017-Nov-17 16:58S 24°04' W 046°21'0 0.0
2017-Nov-17 16:28S 24°03' W 046°21'0 0.0
2017-Nov-17 15:58S 24°04' W 046°21'0 0.0
2017-Nov-17 15:28S 24°04' W 046°21'0 0.0
2017-Nov-17 14:58S 24°04' W 046°21'0 0.0
2017-Nov-17 14:28S 24°04' W 046°21'0 0.0
2017-Nov-17 13:58S 24°04' W 046°21'0 0.0
2017-Nov-17 13:28S 24°04' W 046°21'0 0.1
2017-Nov-17 12:58S 24°03' W 046°20'0 0.1
2017-Nov-17 12:28S 24°03' W 046°20'0 0.1
2017-Nov-17 11:58S 24°03' W 046°20'0 0.0
2017-Nov-17 11:28S 24°03' W 046°20'0 0.0
2017-Nov-17 10:58S 24°03' W 046°20'0 0.0
2017-Nov-17 10:28S 24°03' W 046°20'0 0.0
2017-Nov-17 09:58S 24°03' W 046°20'0 0.0
2017-Nov-17 09:28S 24°03' W 046°20'0 0.0
2017-Nov-17 08:58S 24°03' W 046°20'0 0.1
2017-Nov-17 08:28S 24°04' W 046°20'0 0.1
2017-Nov-17 07:55S 24°03' W 046°20'0 0.1
2017-Nov-17 07:28S 24°03' W 046°20'0 0.1
2017-Nov-17 06:58S 24°03' W 046°20'0 0.0
2017-Nov-17 06:28S 24°03' W 046°20'0 0.1
2017-Nov-17 05:58S 24°04' W 046°20'0 0.1
2017-Nov-17 05:28S 24°04' W 046°20'0 0.0
2017-Nov-17 04:58S 24°04' W 046°20'0 0.1
2017-Nov-17 04:22S 24°04' W 046°20'0 0.2
2017-Nov-17 03:58S 24°04' W 046°20'0 0.4
2017-Nov-17 03:28S 24°04' W 046°20'0 0.1
2017-Nov-17 02:58S 24°04' W 046°20'0 0.0
2017-Nov-17 02:28S 24°04' W 046°20'0 0.0
2017-Nov-17 01:58S 24°04' W 046°20'0 0.1
2017-Nov-17 01:28S 24°04' W 046°20'0 0.0
2017-Nov-17 00:52S 24°04' W 046°20'0 0.0
2017-Nov-17 00:22S 24°04' W 046°20'0 0.2
2017-Nov-16 23:52S 24°04' W 046°20'0 0.2
2017-Nov-16 23:28S 24°04' W 046°20'0 0.1
2017-Nov-16 22:58S 24°04' W 046°20'0 0.1
2017-Nov-16 22:28S 24°04' W 046°20'0 0.2
2017-Nov-16 21:58S 24°04' W 046°20'0 0.1
2017-Nov-16 21:28S 24°04' W 046°20'0 0.1
2017-Nov-16 20:52S 24°04' W 046°20'0 0.5
2017-Nov-16 20:28S 24°04' W 046°21'0 0.0
2017-Nov-16 19:58S 24°04' W 046°21'0 0.0
2017-Nov-16 19:28S 24°04' W 046°21'0 0.0
2017-Nov-16 18:58S 24°04' W 046°21'0 0.0
2017-Nov-16 18:28S 24°04' W 046°21'0 0.0
2017-Nov-16 17:58S 24°04' W 046°21'0 0.0
2017-Nov-16 17:25S 24°04' W 046°21'0 0.0
2017-Nov-16 16:58S 24°04' W 046°21'0 0.0
2017-Nov-16 16:16S 24°04' W 046°21'0 0.0
2017-Nov-16 15:58S 24°04' W 046°21'0 0.0
2017-Nov-16 15:28S 24°04' W 046°21'0 0.0
2017-Nov-16 14:58S 24°04' W 046°21'0 0.0
2017-Nov-16 14:25S 24°04' W 046°21'0 0.0
2017-Nov-16 13:52S 24°03' W 046°21'0 0.0
2017-Nov-16 13:28S 24°03' W 046°21'0 0.0
2017-Nov-16 12:58S 24°04' W 046°21'0 0.0
2017-Nov-16 12:28S 24°04' W 046°21'0 0.0
2017-Nov-16 11:58S 24°04' W 046°21'0 0.0
2017-Nov-16 11:28S 24°03' W 046°21'0 0.0
2017-Nov-16 10:58S 24°04' W 046°21'0 0.0
2017-Nov-16 10:22S 24°04' W 046°21'0 0.0
2017-Nov-16 09:58S 24°04' W 046°21'0 0.0
2017-Nov-16 09:28S 24°04' W 046°21'0 0.0
2017-Nov-16 08:58S 24°04' W 046°21'0 0.0
2017-Nov-16 08:28S 24°04' W 046°21'0 0.0
2017-Nov-16 07:58S 24°04' W 046°21'0 0.0
2017-Nov-16 07:22S 24°04' W 046°21'0 0.0
2017-Nov-16 06:58S 24°04' W 046°21'0 0.0
2017-Nov-16 06:28S 24°04' W 046°21'0 0.1
2017-Nov-16 05:58S 24°03' W 046°21'0 0.1
2017-Nov-16 05:28S 24°03' W 046°21'0 0.0
2017-Nov-16 04:58S 24°03' W 046°21'0 0.0
2017-Nov-16 04:25S 24°03' W 046°21'0 0.0
2017-Nov-16 03:58S 24°04' W 046°21'0 0.0
2017-Nov-16 03:28S 24°04' W 046°21'0 0.0
2017-Nov-16 02:55S 24°04' W 046°21'0 0.0
2017-Nov-16 02:28S 24°04' W 046°21'0 0.0
2017-Nov-16 01:58S 24°03' W 046°21'0 0.0
2017-Nov-16 01:28S 24°04' W 046°21'0 0.0
2017-Nov-16 00:58S 24°04' W 046°21'0 0.0
2017-Nov-16 00:28S 24°04' W 046°21'0 0.0
2017-Nov-15 23:58S 24°04' W 046°21'0 0.0
2017-Nov-15 23:28S 24°04' W 046°21'0 0.0
2017-Nov-15 22:58S 24°04' W 046°21'0 0.0
2017-Nov-15 22:22S 24°04' W 046°21'0 0.0
2017-Nov-15 21:58S 24°04' W 046°21'0 0.0
2017-Nov-15 21:25S 24°04' W 046°21'0 0.0
2017-Nov-15 20:58S 24°04' W 046°21'0 0.0
2017-Nov-15 20:28S 24°04' W 046°21'0 0.0
2017-Nov-15 19:58S 24°04' W 046°21'0 0.0
2017-Nov-15 19:28S 24°04' W 046°21'0 0.0
2017-Nov-15 18:58S 24°04' W 046°21'0 0.0
2017-Nov-15 18:28S 24°04' W 046°21'0 0.0
2017-Nov-15 17:58S 24°04' W 046°21'0 0.0
2017-Nov-15 17:22S 24°04' W 046°21'0 0.0
2017-Nov-15 16:58S 24°04' W 046°21'0 0.0
2017-Nov-15 16:22S 24°04' W 046°21'0 0.0
2017-Nov-15 15:49S 24°03' W 046°21'0 0.0
2017-Nov-15 15:28S 24°03' W 046°21'0 0.0
2017-Nov-15 14:58S 24°03' W 046°21'0 0.0
2017-Nov-15 14:22S 24°03' W 046°21'0 0.0
2017-Nov-15 13:58S 24°03' W 046°21'0 0.0
2017-Nov-15 13:28S 24°03' W 046°21'0 0.0
2017-Nov-15 12:58S 24°03' W 046°21'0 0.0
2017-Nov-15 12:28S 24°03' W 046°21'0 0.0
2017-Nov-15 11:58S 24°03' W 046°21'0 0.0
2017-Nov-15 11:28S 24°03' W 046°21'0 0.0
2017-Nov-15 10:58S 24°03' W 046°21'0 0.0
2017-Nov-15 10:28S 24°03' W 046°21'0 0.0
2017-Nov-15 09:58S 24°03' W 046°21'0 0.0
2017-Nov-15 09:28S 24°03' W 046°21'0 0.0
2017-Nov-15 08:52S 24°04' W 046°21'0 0.0
2017-Nov-15 08:28S 24°04' W 046°21'0 0.0
2017-Nov-15 07:58S 24°04' W 046°21'0 0.0
2017-Nov-15 07:28S 24°04' W 046°21'0 0.0
2017-Nov-15 06:58S 24°04' W 046°21'0 0.0
2017-Nov-15 06:28S 24°04' W 046°21'0 0.0
2017-Nov-15 05:58S 24°04' W 046°21'0 0.0
2017-Nov-15 05:22S 24°04' W 046°21'0 0.0
2017-Nov-15 04:58S 24°04' W 046°21'0 0.0
2017-Nov-15 04:28S 24°04' W 046°21'0 0.0
2017-Nov-15 03:58S 24°04' W 046°21'1 1.9
2017-Nov-15 03:30S 24°04' W 046°21'3 6.2
2017-Nov-15 03:00S 24°07' W 046°22'611.4
2017-Nov-15 02:30S 24°10' W 046°16'714.3
2017-Nov-15 02:01S 24°11' W 046°08'914.7
2017-Nov-15 01:25S 24°11' W 045°59'5614.3
2017-Nov-14 21:33S 24°11' W 044°58'214.2
2017-Nov-14 21:24S 24°11' W 044°56'  
Track history (hours):
 
Tides and Currents Weather Stations Pressure Air Temp Water Temp Dewpoint Dewpoint Depression Visibility Wind Speed Wind Dir Waves Ship Positions

Lambi

Last reported at 2017-Nov-19 19:46 UTC. Time now 2017-Nov-20 13:33 UTC.
Position S 24°12' W 045°52'.

Length 179 m; draft 10 m.

Type: Cargo ship. MMSI: 229312000.

Date/timePositionNaut miles runAvg speedWind from/ knotsBaromVisibWave heightAir tempDewpointWater temp
2017-Nov-19 19:46S 24°12' W 045°52'413.4
2017-Nov-19 19:28S 24°11' W 045°57'613.5
2017-Nov-19 19:00S 24°10' W 046°04'713.4
2017-Nov-19 18:30S 24°08' W 046°10'713.4
2017-Nov-19 18:00S 24°05' W 046°17'510.6
2017-Nov-19 17:30S 24°01' W 046°20'3 6.8
2017-Nov-19 17:00S 23°58' W 046°18'2 2.3
2017-Nov-19 16:06S 23°57' W 046°19'0 0.0
2017-Nov-19 15:36S 23°57' W 046°19'0 0.0
2017-Nov-19 15:12S 23°57' W 046°19'0 0.0
2017-Nov-19 14:57S 23°57' W 046°19'0 0.0
2017-Nov-18 14:42S 23°57' W 046°19'0 0.0
2017-Nov-18 14:12S 23°57' W 046°19'0 0.0
2017-Nov-18 14:01S 23°57' W 046°19'0 0.0
2017-Nov-18 13:24S 23°57' W 046°19'0 0.0
2017-Nov-18 05:19S 23°57' W 046°19'1 4.5
2017-Nov-18 05:00S 23°58' W 046°18'2 4.9
2017-Nov-18 04:30S 23°60' W 046°20'4 7.7
2017-Nov-18 04:00S 24°03' W 046°21'0 0.6
2017-Nov-18 03:16S 24°03' W 046°20'0 0.0
2017-Nov-18 02:58S 24°03' W 046°20'0 0.1
2017-Nov-18 02:28S 24°04' W 046°21'0 0.0
2017-Nov-18 01:55S 24°03' W 046°21'0 0.1
2017-Nov-18 01:28S 24°04' W 046°21'0 0.2
2017-Nov-18 00:58S 24°04' W 046°21'0 0.1
2017-Nov-18 00:28S 24°04' W 046°20'0 0.0
2017-Nov-17 23:58S 24°04' W 046°21'0 0.1
2017-Nov-17 23:22S 24°04' W 046°21'0 0.1
2017-Nov-17 22:58S 24°04' W 046°21'0 0.0
2017-Nov-17 22:28S 24°04' W 046°21'0 0.1
2017-Nov-17 21:58S 24°04' W 046°20'0 0.1
2017-Nov-17 21:28S 24°04' W 046°21'0 0.0
2017-Nov-17 20:55S 24°04' W 046°21'0 0.1
2017-Nov-17 20:28S 24°04' W 046°21'0 0.0
2017-Nov-17 19:49S 24°04' W 046°21'0 0.0
2017-Nov-17 19:28S 24°04' W 046°21'0 0.2
2017-Nov-17 18:58S 24°04' W 046°21'0 0.1
2017-Nov-17 18:28S 24°03' W 046°20'0 0.0
2017-Nov-17 17:55S 24°03' W 046°20'0 0.0
2017-Nov-17 17:22S 24°03' W 046°21'0 0.1
2017-Nov-17 16:58S 24°04' W 046°21'0 0.0
2017-Nov-17 16:28S 24°03' W 046°21'0 0.0
2017-Nov-17 15:58S 24°04' W 046°21'0 0.0
2017-Nov-17 15:28S 24°04' W 046°21'0 0.0
2017-Nov-17 14:58S 24°04' W 046°21'0 0.0
2017-Nov-17 14:28S 24°04' W 046°21'0 0.0
2017-Nov-17 13:58S 24°04' W 046°21'0 0.0
2017-Nov-17 13:28S 24°04' W 046°21'0 0.1
2017-Nov-17 12:58S 24°03' W 046°20'0 0.1
2017-Nov-17 12:28S 24°03' W 046°20'0 0.1
2017-Nov-17 11:58S 24°03' W 046°20'0 0.0
2017-Nov-17 11:28S 24°03' W 046°20'0 0.0
2017-Nov-17 10:58S 24°03' W 046°20'0 0.0
2017-Nov-17 10:28S 24°03' W 046°20'0 0.0
2017-Nov-17 09:58S 24°03' W 046°20'0 0.0
2017-Nov-17 09:28S 24°03' W 046°20'0 0.0
2017-Nov-17 08:58S 24°03' W 046°20'0 0.1
2017-Nov-17 08:28S 24°04' W 046°20'0 0.1
2017-Nov-17 07:55S 24°03' W 046°20'0 0.1
2017-Nov-17 07:28S 24°03' W 046°20'0 0.1
2017-Nov-17 06:58S 24°03' W 046°20'0 0.0
2017-Nov-17 06:28S 24°03' W 046°20'0 0.1
2017-Nov-17 05:58S 24°04' W 046°20'0 0.1
2017-Nov-17 05:28S 24°04' W 046°20'0 0.0
2017-Nov-17 04:58S 24°04' W 046°20'0 0.1
2017-Nov-17 04:22S 24°04' W 046°20'0 0.2
2017-Nov-17 03:58S 24°04' W 046°20'0 0.4
2017-Nov-17 03:28S 24°04' W 046°20'0 0.1
2017-Nov-17 02:58S 24°04' W 046°20'0 0.0
2017-Nov-17 02:28S 24°04' W 046°20'0 0.0
2017-Nov-17 01:58S 24°04' W 046°20'0 0.1
2017-Nov-17 01:28S 24°04' W 046°20'0 0.0
2017-Nov-17 00:52S 24°04' W 046°20'0 0.0
2017-Nov-17 00:22S 24°04' W 046°20'0 0.2
2017-Nov-16 23:52S 24°04' W 046°20'0 0.2
2017-Nov-16 23:28S 24°04' W 046°20'0 0.1
2017-Nov-16 22:58S 24°04' W 046°20'0 0.1
2017-Nov-16 22:28S 24°04' W 046°20'0 0.2
2017-Nov-16 21:58S 24°04' W 046°20'0 0.1
2017-Nov-16 21:28S 24°04' W 046°20'0 0.1
2017-Nov-16 20:52S 24°04' W 046°20'0 0.5
2017-Nov-16 20:28S 24°04' W 046°21'0 0.0
2017-Nov-16 19:58S 24°04' W 046°21'0 0.0
2017-Nov-16 19:28S 24°04' W 046°21'0 0.0
2017-Nov-16 18:58S 24°04' W 046°21'0 0.0
2017-Nov-16 18:28S 24°04' W 046°21'0 0.0
2017-Nov-16 17:58S 24°04' W 046°21'0 0.0
2017-Nov-16 17:25S 24°04' W 046°21'0 0.0
2017-Nov-16 16:58S 24°04' W 046°21'0 0.0
2017-Nov-16 16:16S 24°04' W 046°21'0 0.0
2017-Nov-16 15:58S 24°04' W 046°21'0 0.0
2017-Nov-16 15:28S 24°04' W 046°21'0 0.0
2017-Nov-16 14:58S 24°04' W 046°21'0 0.0
2017-Nov-16 14:25S 24°04' W 046°21'0 0.0
2017-Nov-16 13:52S 24°03' W 046°21'0 0.0
2017-Nov-16 13:28S 24°03' W 046°21'0 0.0
2017-Nov-16 12:58S 24°04' W 046°21'0 0.0
2017-Nov-16 12:28S 24°04' W 046°21'0 0.0
2017-Nov-16 11:58S 24°04' W 046°21'0 0.0
2017-Nov-16 11:28S 24°03' W 046°21'0 0.0
2017-Nov-16 10:58S 24°04' W 046°21'0 0.0
2017-Nov-16 10:22S 24°04' W 046°21'0 0.0
2017-Nov-16 09:58S 24°04' W 046°21'0 0.0
2017-Nov-16 09:28S 24°04' W 046°21'0 0.0
2017-Nov-16 08:58S 24°04' W 046°21'0 0.0
2017-Nov-16 08:28S 24°04' W 046°21'0 0.0
2017-Nov-16 07:58S 24°04' W 046°21'0 0.0
2017-Nov-16 07:22S 24°04' W 046°21'0 0.0
2017-Nov-16 06:58S 24°04' W 046°21'0 0.0
2017-Nov-16 06:28S 24°04' W 046°21'0 0.1
2017-Nov-16 05:58S 24°03' W 046°21'0 0.1
2017-Nov-16 05:28S 24°03' W 046°21'0 0.0
2017-Nov-16 04:58S 24°03' W 046°21'0 0.0
2017-Nov-16 04:25S 24°03' W 046°21'0 0.0
2017-Nov-16 03:58S 24°04' W 046°21'0 0.0
2017-Nov-16 03:28S 24°04' W 046°21'0 0.0
2017-Nov-16 02:55S 24°04' W 046°21'0 0.0
2017-Nov-16 02:28S 24°04' W 046°21'0 0.0
2017-Nov-16 01:58S 24°03' W 046°21'0 0.0
2017-Nov-16 01:28S 24°04' W 046°21'0 0.0
2017-Nov-16 00:58S 24°04' W 046°21'0 0.0
2017-Nov-16 00:28S 24°04' W 046°21'0 0.0
2017-Nov-15 23:58S 24°04' W 046°21'0 0.0
2017-Nov-15 23:28S 24°04' W 046°21'0 0.0
2017-Nov-15 22:58S 24°04' W 046°21'0 0.0
2017-Nov-15 22:22S 24°04' W 046°21'0 0.0
2017-Nov-15 21:58S 24°04' W 046°21'0 0.0
2017-Nov-15 21:25S 24°04' W 046°21'0 0.0
2017-Nov-15 20:58S 24°04' W 046°21'0 0.0
2017-Nov-15 20:28S 24°04' W 046°21'0 0.0
2017-Nov-15 19:58S 24°04' W 046°21'0 0.0
2017-Nov-15 19:28S 24°04' W 046°21'0 0.0
2017-Nov-15 18:58S 24°04' W 046°21'0 0.0
2017-Nov-15 18:28S 24°04' W 046°21'0 0.0
2017-Nov-15 17:58S 24°04' W 046°21'0 0.0
2017-Nov-15 17:22S 24°04' W 046°21'0 0.0
2017-Nov-15 16:58S 24°04' W 046°21'0 0.0
2017-Nov-15 16:22S 24°04' W 046°21'0 0.0
2017-Nov-15 15:49S 24°03' W 046°21'0 0.0
2017-Nov-15 15:28S 24°03' W 046°21'0 0.0
2017-Nov-15 14:58S 24°03' W 046°21'0 0.0
2017-Nov-15 14:22S 24°03' W 046°21'0 0.0
2017-Nov-15 13:58S 24°03' W 046°21'0 0.0
2017-Nov-15 13:28S 24°03' W 046°21'0 0.0
2017-Nov-15 12:58S 24°03' W 046°21'0 0.0
2017-Nov-15 12:28S 24°03' W 046°21'0 0.0
2017-Nov-15 11:58S 24°03' W 046°21'0 0.0
2017-Nov-15 11:28S 24°03' W 046°21'0 0.0
2017-Nov-15 10:58S 24°03' W 046°21'0 0.0
2017-Nov-15 10:28S 24°03' W 046°21'0 0.0
2017-Nov-15 09:58S 24°03' W 046°21'0 0.0
2017-Nov-15 09:28S 24°03' W 046°21'0 0.0
2017-Nov-15 08:52S 24°04' W 046°21'0 0.0
2017-Nov-15 08:28S 24°04' W 046°21'0 0.0
2017-Nov-15 07:58S 24°04' W 046°21'0 0.0
2017-Nov-15 07:28S 24°04' W 046°21'0 0.0
2017-Nov-15 06:58S 24°04' W 046°21'0 0.0
2017-Nov-15 06:28S 24°04' W 046°21'0 0.0
2017-Nov-15 05:58S 24°04' W 046°21'0 0.0
2017-Nov-15 05:22S 24°04' W 046°21'0 0.0
2017-Nov-15 04:58S 24°04' W 046°21'0 0.0
2017-Nov-15 04:28S 24°04' W 046°21'0 0.0
2017-Nov-15 03:58S 24°04' W 046°21'1 1.9
2017-Nov-15 03:30S 24°04' W 046°21'3 6.2
2017-Nov-15 03:00S 24°07' W 046°22'611.4
2017-Nov-15 02:30S 24°10' W 046°16'714.3
2017-Nov-15 02:01S 24°11' W 046°08'914.7
2017-Nov-15 01:25S 24°11' W 045°59'5614.3
2017-Nov-14 21:33S 24°11' W 044°58'214.2
2017-Nov-14 21:24S 24°11' W 044°56'  

Dump ship's entire track history